createdAt,value
2019-05-18T00:02:25.774Z,99.90
2019-05-18T00:04:54.162Z,99.90
2019-05-18T00:07:22.579Z,99.90
2019-05-18T00:09:51.238Z,99.90
2019-05-18T00:12:19.673Z,99.90
2019-05-18T00:14:48.068Z,99.90
2019-05-18T00:17:25.004Z,99.90
2019-05-18T00:19:46.595Z,99.90
2019-05-18T00:22:14.986Z,99.90
2019-05-18T00:24:43.399Z,99.90
2019-05-18T00:27:11.813Z,99.90
2019-05-18T00:29:40.219Z,99.90
2019-05-18T00:32:08.622Z,99.90
2019-05-18T00:34:37.030Z,99.90
2019-05-18T00:37:05.440Z,99.90
2019-05-18T00:39:33.862Z,99.90
2019-05-18T00:42:02.261Z,99.90
2019-05-18T00:44:30.660Z,99.90
2019-05-18T00:46:59.064Z,99.90
2019-05-18T00:49:27.471Z,99.90
2019-05-18T00:51:55.880Z,99.90
2019-05-18T00:54:24.359Z,99.90
2019-05-18T00:56:52.772Z,99.90
2019-05-18T00:59:21.177Z,99.90
2019-05-18T01:01:49.664Z,99.90
2019-05-18T01:04:18.100Z,99.90
2019-05-18T01:06:46.486Z,99.90
2019-05-18T01:09:14.898Z,99.90
2019-05-18T01:11:43.301Z,99.90
2019-05-18T01:14:11.711Z,99.90
2019-05-18T01:16:40.172Z,99.90
2019-05-18T01:19:08.659Z,99.90
2019-05-18T01:21:37.064Z,99.90
2019-05-18T01:24:05.618Z,99.90
2019-05-18T01:26:34.014Z,99.90
2019-05-18T01:29:04.462Z,99.90
2019-05-18T01:31:34.313Z,99.90
2019-05-18T01:34:02.799Z,99.90
2019-05-18T01:36:31.203Z,99.90
2019-05-18T01:38:59.627Z,99.90
2019-05-18T01:41:28.032Z,99.90
2019-05-18T01:43:56.433Z,99.90
2019-05-18T01:46:24.844Z,99.90
2019-05-18T01:48:53.259Z,99.90
2019-05-18T01:51:21.665Z,99.90
2019-05-18T01:53:50.087Z,99.90
2019-05-18T01:56:18.497Z,99.90
2019-05-18T01:58:46.930Z,99.90
2019-05-18T02:01:15.321Z,99.90
2019-05-18T02:03:43.815Z,99.90
2019-05-18T02:06:12.232Z,99.90
2019-05-18T02:08:40.618Z,99.90
2019-05-18T02:11:09.041Z,99.90
2019-05-18T02:13:37.453Z,99.90
2019-05-18T02:16:05.876Z,99.90
2019-05-18T02:18:34.258Z,99.90
2019-05-18T02:21:02.670Z,99.90
2019-05-18T02:23:31.064Z,99.90
2019-05-18T02:25:59.495Z,99.90
2019-05-18T02:28:27.886Z,99.90
2019-05-18T02:30:56.306Z,99.90
2019-05-18T02:33:24.707Z,99.90
2019-05-18T02:35:53.133Z,99.90
2019-05-18T02:38:21.544Z,99.90
2019-05-18T02:40:49.966Z,99.90
2019-05-18T02:43:18.432Z,99.90
2019-05-18T02:45:46.837Z,99.90
2019-05-18T02:48:15.241Z,99.90
2019-05-18T02:50:43.665Z,99.90
2019-05-18T02:53:12.054Z,99.90
2019-05-18T02:55:40.470Z,99.90
2019-05-18T02:58:08.881Z,99.90
2019-05-18T03:00:37.299Z,99.90
2019-05-18T03:03:05.969Z,99.90
2019-05-18T03:05:34.442Z,99.90
2019-05-18T03:08:02.840Z,99.90
2019-05-18T03:10:31.251Z,99.90
2019-05-18T03:12:59.729Z,99.90
2019-05-18T03:15:28.220Z,99.90
2019-05-18T03:17:56.617Z,99.90
2019-05-18T03:20:25.033Z,99.90
2019-05-18T03:22:53.432Z,99.90
2019-05-18T03:25:21.838Z,99.90
2019-05-18T03:27:50.241Z,99.90
2019-05-18T03:30:18.793Z,99.90
2019-05-18T03:32:47.194Z,99.90
2019-05-18T03:35:15.681Z,99.90
2019-05-18T03:37:44.086Z,99.90
2019-05-18T03:40:12.746Z,99.90
2019-05-18T03:42:41.135Z,99.90
2019-05-18T03:45:10.016Z,99.90
2019-05-18T03:47:38.455Z,99.90
2019-05-18T03:50:08.222Z,99.90
2019-05-18T03:52:37.403Z,99.90
2019-05-18T03:55:06.188Z,99.90
2019-05-18T03:57:34.598Z,99.90
2019-05-18T04:00:04.260Z,99.90
2019-05-18T04:02:32.694Z,99.90
2019-05-18T04:05:01.079Z,99.90
2019-05-18T04:07:29.499Z,99.90
2019-05-18T04:09:57.918Z,99.90
2019-05-18T04:12:26.410Z,99.90
2019-05-18T04:14:54.823Z,99.90
2019-05-18T04:17:23.233Z,99.90
2019-05-18T04:19:51.660Z,99.90
2019-05-18T04:22:20.033Z,99.90
2019-05-18T04:24:48.460Z,99.90
2019-05-18T04:27:16.853Z,99.90
2019-05-18T04:29:45.274Z,99.90
2019-05-18T04:32:13.674Z,99.90
2019-05-18T04:34:42.113Z,99.90
2019-05-18T04:37:10.513Z,99.90
2019-05-18T04:39:39.141Z,99.90
2019-05-18T04:42:07.544Z,99.90
2019-05-18T04:44:35.942Z,99.90
2019-05-18T04:47:04.376Z,99.90
2019-05-18T04:49:32.774Z,99.90
2019-05-18T04:52:01.263Z,99.90
2019-05-18T04:54:29.668Z,99.90
2019-05-18T04:56:58.077Z,99.90
2019-05-18T04:59:26.470Z,99.90
2019-05-18T05:01:54.910Z,99.90
2019-05-18T05:04:23.360Z,99.90
2019-05-18T05:06:51.786Z,99.90
2019-05-18T05:09:20.183Z,99.90
2019-05-18T05:11:48.604Z,99.90
2019-05-18T05:14:17.003Z,99.90
2019-05-18T05:16:45.459Z,99.90
2019-05-18T05:19:13.907Z,99.90
2019-05-18T05:21:42.324Z,99.90
2019-05-18T05:24:10.727Z,99.90
2019-05-18T05:26:39.849Z,99.90
2019-05-18T05:29:08.407Z,99.90
2019-05-18T05:31:36.810Z,99.90
2019-05-18T05:34:05.213Z,99.90
2019-05-18T05:36:33.637Z,99.90
2019-05-18T05:39:02.020Z,99.90
2019-05-18T05:41:30.435Z,99.90
2019-05-18T05:43:58.829Z,99.90
2019-05-18T05:46:27.242Z,99.90
2019-05-18T05:48:55.683Z,99.90
2019-05-18T05:51:24.080Z,99.90
2019-05-18T05:53:52.490Z,99.90
2019-05-18T05:56:20.964Z,99.90
2019-05-18T05:58:49.390Z,99.90
2019-05-18T06:01:17.782Z,99.90
2019-05-18T06:03:46.191Z,99.90
2019-05-18T06:06:14.616Z,99.90
2019-05-18T06:08:43.019Z,99.90
2019-05-18T06:11:11.430Z,99.90
2019-05-18T06:13:39.840Z,99.90
2019-05-18T06:16:08.268Z,99.90
2019-05-18T06:18:36.666Z,99.90
2019-05-18T06:21:05.067Z,99.90
2019-05-18T06:23:33.466Z,99.90
2019-05-18T06:26:01.890Z,99.90
2019-05-18T06:28:30.291Z,99.90
2019-05-18T06:30:58.695Z,99.90
2019-05-18T06:33:27.118Z,99.90
2019-05-18T06:35:55.512Z,99.90
2019-05-18T06:38:23.926Z,99.90
2019-05-18T06:40:52.349Z,99.90
2019-05-18T06:43:20.738Z,99.90
2019-05-18T06:45:49.148Z,99.90
2019-05-18T06:48:17.562Z,99.90
2019-05-18T06:50:46.124Z,99.90
2019-05-18T06:53:14.548Z,99.90
2019-05-18T06:55:43.274Z,99.90
2019-05-18T06:58:12.136Z,99.90
2019-05-18T07:00:40.589Z,99.90
2019-05-18T07:03:09.010Z,99.90
2019-05-18T07:05:37.488Z,99.90
2019-05-18T07:08:05.903Z,99.90
2019-05-18T07:10:34.315Z,99.90
2019-05-18T07:13:02.724Z,99.90
2019-05-18T07:15:31.118Z,99.90
2019-05-18T07:17:59.549Z,99.90
2019-05-18T07:20:27.957Z,99.90
2019-05-18T07:22:56.437Z,99.90
2019-05-18T07:25:24.843Z,99.90
2019-05-18T07:27:53.253Z,99.90
2019-05-18T07:30:21.724Z,99.90
2019-05-18T07:32:50.148Z,99.90
2019-05-18T07:35:18.773Z,99.90
2019-05-18T07:37:47.178Z,99.90
2019-05-18T07:40:15.637Z,99.40
2019-05-18T07:42:44.055Z,99.40
2019-05-18T07:45:12.903Z,99.30
2019-05-18T07:47:41.315Z,99.30
2019-05-18T07:50:10.036Z,98.80
2019-05-18T07:52:38.455Z,98.20
2019-05-18T07:55:07.310Z,98.60
2019-05-18T07:57:35.810Z,98.70
2019-05-18T08:00:06.148Z,99.10
2019-05-18T08:02:34.519Z,98.60
2019-05-18T08:05:03.198Z,98.00
2019-05-18T08:07:31.601Z,98.20
2019-05-18T08:10:00.007Z,98.70
2019-05-18T08:12:28.415Z,97.30
2019-05-18T08:14:56.819Z,97.40
2019-05-18T08:17:25.272Z,96.90
2019-05-18T08:19:53.679Z,96.40
2019-05-18T08:22:22.061Z,96.50
2019-05-18T08:24:50.491Z,96.40
2019-05-18T08:27:18.874Z,96.20
2019-05-18T08:29:47.287Z,96.20
2019-05-18T08:32:15.692Z,96.10
2019-05-18T08:34:44.081Z,95.60
2019-05-18T08:37:12.478Z,96.00
2019-05-18T08:39:40.908Z,95.70
2019-05-18T08:42:09.318Z,96.20
2019-05-18T08:44:37.727Z,96.10
2019-05-18T08:47:06.137Z,95.40
2019-05-18T08:49:34.624Z,95.30
2019-05-18T08:52:08.248Z,95.10
2019-05-18T08:54:33.183Z,94.70
2019-05-18T08:57:01.574Z,94.80
2019-05-18T08:59:29.981Z,94.60
2019-05-18T09:01:58.380Z,94.60
2019-05-18T09:04:26.787Z,94.30
2019-05-18T09:06:55.184Z,94.40
2019-05-18T09:09:23.597Z,94.20
2019-05-18T09:11:52.047Z,93.80
2019-05-18T09:14:20.505Z,93.00
2019-05-18T09:16:48.982Z,93.20
2019-05-18T09:19:17.474Z,92.60
2019-05-18T09:21:45.903Z,92.30
2019-05-18T09:24:14.368Z,92.20
2019-05-18T09:26:42.805Z,92.10
2019-05-18T09:29:11.270Z,92.60
2019-05-18T09:31:39.680Z,91.80
2019-05-18T09:34:08.051Z,90.90
2019-05-18T09:36:36.461Z,91.20
2019-05-18T09:39:06.860Z,90.80
2019-05-18T09:41:35.282Z,91.30
2019-05-18T09:44:03.749Z,91.50
2019-05-18T09:46:32.291Z,91.50
2019-05-18T09:49:00.685Z,90.40
2019-05-18T09:51:29.088Z,90.40
2019-05-18T09:53:57.474Z,90.20
2019-05-18T09:56:25.902Z,90.10
2019-05-18T09:58:54.280Z,90.30
2019-05-18T10:01:22.739Z,89.20
2019-05-18T10:03:51.230Z,89.50
2019-05-18T10:06:19.634Z,87.60
2019-05-18T10:08:48.040Z,86.50
2019-05-18T10:11:16.513Z,84.70
2019-05-18T10:13:44.973Z,84.40
2019-05-18T10:16:13.477Z,84.90
2019-05-18T10:18:41.895Z,85.70
2019-05-18T10:21:10.390Z,85.20
2019-05-18T10:23:40.453Z,84.80
2019-05-18T10:26:09.127Z,85.70
2019-05-18T10:28:37.528Z,86.90
2019-05-18T10:31:05.939Z,86.50
2019-05-18T10:33:34.335Z,87.40
2019-05-18T10:36:02.751Z,87.20
2019-05-18T10:38:31.529Z,86.40
2019-05-18T10:40:59.919Z,86.90
2019-05-18T10:43:28.344Z,85.10
2019-05-18T10:45:56.737Z,86.30
2019-05-18T10:48:25.126Z,85.30
2019-05-18T10:50:53.548Z,84.50
2019-05-18T10:53:28.616Z,84.70
2019-05-18T10:55:52.090Z,84.20
2019-05-18T10:58:20.479Z,83.40
2019-05-18T11:00:48.963Z,82.50
2019-05-18T11:03:17.351Z,80.50
2019-05-18T11:05:45.754Z,81.30
2019-05-18T11:08:14.155Z,80.90
2019-05-18T11:10:42.578Z,79.60
2019-05-18T11:13:10.962Z,79.40
2019-05-18T11:15:39.379Z,80.00
2019-05-18T11:18:07.791Z,78.90
2019-05-18T11:20:36.289Z,79.00
2019-05-18T11:23:04.747Z,79.20
2019-05-18T11:25:33.147Z,77.80
2019-05-18T11:28:01.551Z,76.70
2019-05-18T11:30:30.033Z,77.40
2019-05-18T11:32:58.419Z,77.10
2019-05-18T11:35:26.975Z,77.70
2019-05-18T11:37:55.365Z,75.60
2019-05-18T11:40:24.125Z,75.20
2019-05-18T11:42:52.527Z,75.60
2019-05-18T11:45:21.775Z,75.80
2019-05-18T11:47:50.247Z,75.70
2019-05-18T11:50:20.183Z,74.90
2019-05-18T11:52:48.584Z,73.80
2019-05-18T11:55:17.934Z,74.20
2019-05-18T11:57:46.330Z,73.70
2019-05-18T12:00:17.350Z,73.10
2019-05-18T12:02:45.748Z,72.90
2019-05-18T12:05:14.996Z,73.00
2019-05-18T12:07:43.386Z,72.90
2019-05-18T12:10:12.414Z,72.60
2019-05-18T12:12:40.842Z,73.00
2019-05-18T12:15:10.662Z,72.40
2019-05-18T12:17:39.130Z,72.90
2019-05-18T12:20:08.450Z,73.30
2019-05-18T12:22:36.858Z,72.90
2019-05-18T12:25:09.306Z,73.20
2019-05-18T12:27:37.803Z,73.10
2019-05-18T12:30:11.302Z,74.00
2019-05-18T12:32:39.716Z,73.70
2019-05-18T12:35:08.772Z,72.50
2019-05-18T12:37:37.166Z,72.80
2019-05-18T12:40:07.517Z,74.00
2019-05-18T12:42:35.997Z,75.80
2019-05-18T12:45:06.546Z,74.90
2019-05-18T12:47:34.993Z,75.80
2019-05-18T12:50:04.822Z,75.10
2019-05-18T12:52:33.246Z,74.10
2019-05-18T12:55:01.694Z,75.40
2019-05-18T12:57:30.337Z,75.00
2019-05-18T12:59:58.755Z,76.50
2019-05-18T13:02:27.158Z,78.10
2019-05-18T13:04:55.569Z,79.30
2019-05-18T13:07:23.979Z,78.10
2019-05-18T13:09:52.370Z,78.40
2019-05-18T13:12:20.801Z,78.60
2019-05-18T13:14:49.193Z,75.50
2019-05-18T13:17:17.598Z,78.70
2019-05-18T13:19:45.989Z,87.90
2019-05-18T13:22:14.414Z,91.70
2019-05-18T13:24:45.404Z,94.30
2019-05-18T13:27:12.941Z,96.50
2019-05-18T13:29:41.343Z,99.90
2019-05-18T13:32:09.748Z,99.90
2019-05-18T13:34:38.137Z,99.90
2019-05-18T13:37:06.538Z,99.90
2019-05-18T13:39:34.931Z,99.90
2019-05-18T13:42:03.318Z,99.90
2019-05-18T13:44:31.717Z,99.90
2019-05-18T13:47:00.123Z,99.90
2019-05-18T13:49:28.527Z,99.90
2019-05-18T13:51:56.917Z,99.90
2019-05-18T13:54:25.335Z,99.90
2019-05-18T13:56:53.731Z,99.90
2019-05-18T13:59:22.130Z,99.90
2019-05-18T14:01:50.542Z,99.90
2019-05-18T14:04:18.937Z,99.90
2019-05-18T14:06:47.362Z,99.90
2019-05-18T14:09:15.750Z,99.90
2019-05-18T14:11:44.157Z,99.90
2019-05-18T14:14:12.569Z,99.90
2019-05-18T14:16:40.972Z,99.90
2019-05-18T14:19:09.378Z,99.90
2019-05-18T14:21:37.843Z,99.90
2019-05-18T14:24:06.328Z,99.90
2019-05-18T14:26:34.744Z,99.90
2019-05-18T14:29:03.180Z,99.90
2019-05-18T14:31:31.647Z,99.90
2019-05-18T14:34:00.047Z,99.90
2019-05-18T14:36:28.437Z,99.90
2019-05-18T14:38:57.108Z,99.90
2019-05-18T14:41:25.506Z,99.90
2019-05-18T14:43:53.919Z,99.90
2019-05-18T14:46:22.311Z,99.90
2019-05-18T14:48:50.715Z,99.90
2019-05-18T14:51:19.109Z,99.90
2019-05-18T14:53:47.518Z,99.90
2019-05-18T14:56:15.900Z,99.90
2019-05-18T14:58:44.307Z,99.90
2019-05-18T15:01:12.735Z,99.90
2019-05-18T15:03:41.123Z,99.90
2019-05-18T15:06:09.606Z,99.90
2019-05-18T15:08:37.996Z,99.90
2019-05-18T15:11:06.405Z,99.90
2019-05-18T15:13:34.812Z,99.90
2019-05-18T15:16:03.287Z,99.90
2019-05-18T15:18:31.695Z,99.90
2019-05-18T15:21:00.159Z,99.90
2019-05-18T15:23:28.568Z,99.90
2019-05-18T15:25:56.975Z,99.90
2019-05-18T15:28:25.358Z,99.90
2019-05-18T15:30:53.770Z,99.90
2019-05-18T15:33:22.201Z,99.90
2019-05-18T15:35:50.591Z,99.90
2019-05-18T15:38:18.992Z,99.90
2019-05-18T15:40:47.404Z,99.90
2019-05-18T15:43:15.869Z,99.90
2019-05-18T15:45:44.299Z,99.90
2019-05-18T15:48:12.671Z,99.90
2019-05-18T15:50:41.077Z,99.90
2019-05-18T15:53:09.484Z,99.90
2019-05-18T15:55:37.883Z,99.90
2019-05-18T15:58:06.299Z,99.90
2019-05-18T16:00:34.696Z,99.90
2019-05-18T16:03:03.099Z,99.90
2019-05-18T16:05:31.505Z,99.90
2019-05-18T16:07:59.905Z,99.90
2019-05-18T16:10:28.327Z,99.90
2019-05-18T16:12:56.734Z,99.90
2019-05-18T16:15:25.133Z,99.90
2019-05-18T16:17:53.591Z,99.90
2019-05-18T16:20:22.087Z,99.90
2019-05-18T16:22:50.504Z,99.90
2019-05-18T16:25:18.912Z,99.90
2019-05-18T16:27:47.290Z,99.90
2019-05-18T16:30:16.235Z,99.90
2019-05-18T16:32:44.657Z,99.90
2019-05-18T16:35:13.353Z,99.90
2019-05-18T16:37:41.836Z,99.90
2019-05-18T16:40:10.574Z,99.90
2019-05-18T16:42:38.968Z,99.90
2019-05-18T16:45:08.353Z,99.90
2019-05-18T16:47:36.740Z,99.90
2019-05-18T16:50:09.065Z,99.90
2019-05-18T16:52:37.551Z,99.90
2019-05-18T16:55:07.703Z,99.90
2019-05-18T16:57:36.110Z,99.90
2019-05-18T17:00:10.426Z,99.90
2019-05-18T17:02:38.894Z,99.90
2019-05-18T17:05:08.319Z,99.90
2019-05-18T17:07:36.778Z,99.90
2019-05-18T17:10:06.139Z,99.90
2019-05-18T17:12:34.602Z,99.90
2019-05-18T17:15:03.362Z,99.90
2019-05-18T17:17:35.117Z,99.90
2019-05-18T17:20:01.885Z,99.90
2019-05-18T17:22:30.302Z,99.90
2019-05-18T17:24:58.697Z,99.90
2019-05-18T17:27:27.089Z,99.90
2019-05-18T17:29:55.499Z,99.90
2019-05-18T17:32:23.902Z,99.90
2019-05-18T17:34:52.287Z,99.90
2019-05-18T17:37:20.698Z,99.90
2019-05-18T17:39:49.081Z,99.90
2019-05-18T17:42:17.489Z,99.90
2019-05-18T17:44:45.885Z,99.90
2019-05-18T17:47:14.295Z,99.90
2019-05-18T17:49:42.686Z,99.90
2019-05-18T17:52:11.087Z,99.90
2019-05-18T17:54:39.490Z,99.90
2019-05-18T17:57:09.272Z,99.90
2019-05-18T17:59:37.787Z,99.90
2019-05-18T18:02:06.349Z,99.90
2019-05-18T18:04:34.741Z,99.90
2019-05-18T18:07:03.163Z,99.90
2019-05-18T18:09:31.613Z,99.90
2019-05-18T18:12:00.092Z,99.90
2019-05-18T18:14:28.479Z,99.90
2019-05-18T18:16:56.940Z,99.90
2019-05-18T18:19:25.345Z,99.90
2019-05-18T18:21:53.755Z,99.90
2019-05-18T18:24:22.152Z,99.90
2019-05-18T18:26:50.542Z,99.90
2019-05-18T18:29:18.942Z,99.90
2019-05-18T18:31:47.333Z,99.90
2019-05-18T18:34:15.742Z,99.90
2019-05-18T18:36:44.149Z,99.90
2019-05-18T18:39:12.546Z,99.90
2019-05-18T18:41:40.934Z,99.90
2019-05-18T18:44:09.344Z,99.90
2019-05-18T18:46:37.738Z,99.90
2019-05-18T18:49:06.149Z,99.90
2019-05-18T18:51:34.597Z,99.90
2019-05-18T18:54:03.074Z,99.90
2019-05-18T18:56:31.475Z,99.90
2019-05-18T18:58:59.878Z,99.90
2019-05-18T19:01:28.354Z,99.90
2019-05-18T19:03:56.759Z,99.90
2019-05-18T19:06:25.315Z,99.90
2019-05-18T19:08:53.791Z,99.90
2019-05-18T19:11:22.266Z,99.90
2019-05-18T19:13:50.658Z,99.90
2019-05-18T19:16:19.064Z,99.90
2019-05-18T19:18:47.478Z,99.90
2019-05-18T19:21:15.868Z,99.90
2019-05-18T19:23:44.278Z,99.90
2019-05-18T19:26:12.662Z,99.90
2019-05-18T19:28:41.071Z,99.90
2019-05-18T19:31:09.469Z,99.90
2019-05-18T19:33:38.227Z,99.90
2019-05-18T19:36:06.715Z,99.90
2019-05-18T19:38:35.188Z,99.90
2019-05-18T19:41:03.584Z,99.90
2019-05-18T19:43:32.007Z,99.90
2019-05-18T19:46:00.397Z,99.90
2019-05-18T19:48:28.801Z,99.90
2019-05-18T19:50:57.204Z,99.90
2019-05-18T19:53:25.612Z,99.90
2019-05-18T19:55:55.000Z,99.90
2019-05-18T19:58:23.400Z,99.90
2019-05-18T20:00:51.782Z,99.90
2019-05-18T20:03:20.188Z,99.90
2019-05-18T20:05:48.673Z,99.90
2019-05-18T20:08:17.123Z,99.90
2019-05-18T20:10:45.510Z,99.90
2019-05-18T20:13:13.915Z,99.90
2019-05-18T20:15:42.324Z,99.90
2019-05-18T20:18:10.725Z,99.90
2019-05-18T20:20:39.123Z,99.90
2019-05-18T20:23:08.565Z,99.90
2019-05-18T20:25:37.191Z,99.90
2019-05-18T20:28:05.608Z,99.90
2019-05-18T20:30:34.065Z,99.90
2019-05-18T20:33:02.468Z,99.90
2019-05-18T20:35:30.881Z,99.90
2019-05-18T20:37:59.281Z,99.90
2019-05-18T20:40:27.746Z,99.90
2019-05-18T20:42:56.130Z,99.90
2019-05-18T20:45:24.544Z,99.90
2019-05-18T20:47:52.946Z,99.90
2019-05-18T20:50:21.345Z,99.90
2019-05-18T20:52:49.744Z,99.90
2019-05-18T20:55:18.281Z,99.90
2019-05-18T20:57:46.683Z,99.90
2019-05-18T21:00:15.432Z,99.90
2019-05-18T21:02:43.855Z,99.90
2019-05-18T21:05:12.441Z,99.90
2019-05-18T21:07:40.860Z,99.90
2019-05-18T21:10:09.886Z,99.90
2019-05-18T21:12:38.294Z,99.90
2019-05-18T21:15:07.651Z,99.90
2019-05-18T21:17:36.037Z,99.90
2019-05-18T21:20:05.292Z,99.90
2019-05-18T21:22:33.673Z,99.90
2019-05-18T21:25:02.081Z,99.90
2019-05-18T21:27:30.489Z,99.90
2019-05-18T21:29:58.900Z,99.90
2019-05-18T21:32:27.308Z,99.90
2019-05-18T21:34:55.720Z,99.90
2019-05-18T21:37:24.111Z,99.90
2019-05-18T21:39:52.510Z,99.90
2019-05-18T21:42:20.898Z,99.90
2019-05-18T21:44:49.321Z,99.90
2019-05-18T21:47:17.710Z,99.90
2019-05-18T21:49:46.137Z,99.90
2019-05-18T21:52:14.547Z,99.90
2019-05-18T21:54:42.971Z,99.90
2019-05-18T21:57:11.377Z,99.90
2019-05-18T21:59:39.781Z,99.90
2019-05-18T22:02:08.417Z,99.90
2019-05-18T22:04:36.835Z,99.90
2019-05-18T22:07:05.227Z,99.90
2019-05-18T22:09:33.662Z,99.90
2019-05-18T22:12:02.061Z,99.90
2019-05-18T22:14:30.477Z,99.90
2019-05-18T22:16:58.882Z,99.90
2019-05-18T22:19:27.287Z,99.90
2019-05-18T22:21:55.690Z,99.90
2019-05-18T22:24:24.095Z,99.90
2019-05-18T22:26:52.497Z,99.90
2019-05-18T22:29:20.898Z,99.90
2019-05-18T22:31:49.318Z,99.90
2019-05-18T22:34:17.717Z,99.90
2019-05-18T22:36:46.143Z,99.90
2019-05-18T22:39:14.554Z,99.90
2019-05-18T22:41:42.973Z,99.90
2019-05-18T22:44:11.358Z,99.90
2019-05-18T22:46:39.766Z,99.90
2019-05-18T22:49:08.186Z,99.90
2019-05-18T22:51:36.939Z,99.90
2019-05-18T22:54:05.354Z,99.90
2019-05-18T22:56:33.785Z,99.90
2019-05-18T22:59:02.170Z,99.90
2019-05-18T23:01:30.595Z,99.90
2019-05-18T23:03:58.992Z,99.90
2019-05-18T23:06:27.427Z,99.90
2019-05-18T23:08:55.874Z,99.90
2019-05-18T23:11:24.298Z,99.90
2019-05-18T23:13:52.685Z,99.90
2019-05-18T23:16:21.092Z,99.90
2019-05-18T23:18:56.933Z,99.90
2019-05-18T23:21:19.673Z,99.90
2019-05-18T23:23:48.127Z,99.90
2019-05-18T23:26:16.544Z,99.90
2019-05-18T23:28:44.947Z,99.90
2019-05-18T23:31:13.329Z,99.90
2019-05-18T23:33:41.737Z,99.90
2019-05-18T23:36:10.143Z,99.90
2019-05-18T23:38:38.558Z,99.90
2019-05-18T23:41:07.031Z,99.90
2019-05-18T23:43:35.431Z,99.90
2019-05-18T23:46:03.901Z,99.90
2019-05-18T23:48:32.306Z,99.90
2019-05-18T23:51:00.780Z,99.90
2019-05-18T23:53:29.262Z,99.90
2019-05-18T23:55:57.772Z,99.90
2019-05-18T23:58:26.236Z,99.90
